createdAt,value
2023-02-11T00:02:11.600Z,9.63
2023-02-11T00:07:13.696Z,7.65
2023-02-11T00:12:15.599Z,8.77
2023-02-11T00:17:17.709Z,8.13
2023-02-11T00:22:19.880Z,7.65
2023-02-11T00:27:21.732Z,8.80
2023-02-11T00:32:23.690Z,8.20
2023-02-11T00:37:25.576Z,8.97
2023-02-11T00:42:27.526Z,7.13
2023-02-11T00:47:29.615Z,7.67
2023-02-11T00:52:32.223Z,9.65
2023-02-11T01:02:35.790Z,7.53
2023-02-11T01:07:37.752Z,5.77
2023-02-11T01:12:39.971Z,7.30
2023-02-11T01:17:42.014Z,7.72
2023-02-11T01:22:43.933Z,8.52
2023-02-11T01:27:45.886Z,6.87
2023-02-11T01:32:47.793Z,5.68
2023-02-11T01:37:49.811Z,6.03
2023-02-11T01:42:51.712Z,6.30
2023-02-11T01:47:53.655Z,5.17
2023-02-11T01:52:55.547Z,6.20
2023-02-11T01:58:00.969Z,5.83
2023-02-11T02:03:11.488Z,5.78
2023-02-11T02:08:27.237Z,5.75
2023-02-11T02:13:30.389Z,5.60
2023-02-11T02:19:10.490Z,5.03
2023-02-11T02:24:24.372Z,5.07
2023-02-11T02:29:43.921Z,5.00
2023-02-11T02:35:04.400Z,4.15
2023-02-11T02:40:11.438Z,3.90
2023-02-11T02:45:14.347Z,4.70
2023-02-11T02:50:17.439Z,3.77
2023-02-11T02:55:34.365Z,4.35
2023-02-11T03:01:03.949Z,5.15
2023-02-11T03:06:34.375Z,4.30
2023-02-11T03:11:36.318Z,4.88
2023-02-11T03:16:38.239Z,3.63
2023-02-11T03:21:40.847Z,3.57
2023-02-11T03:32:14.485Z,4.30
2023-02-11T03:37:24.740Z,4.05
2023-02-11T03:42:28.194Z,4.28
2023-02-11T03:47:30.127Z,4.00
2023-02-11T03:52:32.125Z,3.80
2023-02-11T03:57:34.048Z,3.93
2023-02-11T04:02:36.641Z,2.87
2023-02-11T04:12:40.422Z,3.22
2023-02-11T04:17:42.688Z,3.40
2023-02-11T04:22:44.624Z,3.63
2023-02-11T04:27:46.459Z,3.23
2023-02-11T04:32:48.449Z,3.47
2023-02-11T04:37:50.249Z,3.20
2023-02-11T04:42:52.141Z,3.60
2023-02-11T04:47:54.170Z,2.70
2023-02-11T04:52:56.099Z,3.22
2023-02-11T04:57:58.076Z,3.08
2023-02-11T05:03:00.658Z,2.80
2023-02-11T05:13:04.822Z,2.78
2023-02-11T05:18:06.663Z,3.22
2023-02-11T05:23:08.533Z,3.43
2023-02-11T05:28:10.495Z,3.80
2023-02-11T05:33:13.850Z,3.53
2023-02-11T05:38:15.704Z,2.90
2023-02-11T05:43:17.758Z,2.80
2023-02-11T05:48:19.799Z,3.75
2023-02-11T05:53:21.770Z,3.57
2023-02-11T05:58:23.682Z,3.23
2023-02-11T06:03:25.623Z,3.60
2023-02-11T06:08:27.675Z,3.30
2023-02-11T06:13:29.740Z,3.10
2023-02-11T06:18:31.629Z,3.03
2023-02-11T06:23:33.514Z,2.60
2023-02-11T06:28:35.531Z,3.90
2023-02-11T06:33:37.715Z,3.38
2023-02-11T06:38:39.696Z,3.30
2023-02-11T06:43:41.672Z,3.13
2023-02-11T06:48:44.932Z,3.57
2023-02-11T06:53:47.144Z,4.40
2023-02-11T06:58:51.865Z,3.70
2023-02-11T07:03:53.882Z,4.60
2023-02-11T07:08:55.987Z,3.58
2023-02-11T07:14:01.497Z,3.42
2023-02-11T07:19:03.492Z,3.88
2023-02-11T07:24:11.060Z,5.20
2023-02-11T07:29:13.449Z,4.15
2023-02-11T07:34:15.417Z,4.25
2023-02-11T07:40:06.517Z,4.40
2023-02-11T07:45:08.764Z,4.00
2023-02-11T07:50:10.787Z,4.68
2023-02-11T07:55:12.752Z,3.57
2023-02-11T08:00:15.331Z,5.15
2023-02-11T08:05:17.312Z,6.13
2023-02-11T08:10:19.408Z,5.97
2023-02-11T08:15:21.418Z,6.18
2023-02-11T08:20:23.281Z,4.87
2023-02-11T08:25:25.228Z,5.90
2023-02-11T08:30:27.643Z,5.17
2023-02-11T08:35:29.679Z,6.13
2023-02-11T08:40:31.550Z,5.23
2023-02-11T08:45:33.522Z,6.73
2023-02-11T08:50:35.510Z,4.60
2023-02-11T08:55:37.504Z,6.37
2023-02-11T09:00:39.446Z,6.90
2023-02-11T09:05:47.745Z,5.90
2023-02-11T09:10:49.906Z,6.30
2023-02-11T09:15:52.028Z,5.78
2023-02-11T09:20:54.133Z,5.30
2023-02-11T09:25:56.115Z,4.70
2023-02-11T09:30:58.005Z,5.10
2023-02-11T09:36:04.112Z,6.37
2023-02-11T09:41:05.968Z,6.07
2023-02-11T09:46:09.391Z,4.90
2023-02-11T09:51:20.867Z,6.20
2023-02-11T09:56:23.792Z,5.30
2023-02-11T10:01:39.109Z,6.05
2023-02-11T10:06:49.410Z,5.50
2023-02-11T10:12:15.475Z,6.35
2023-02-11T10:17:35.268Z,5.93
2023-02-11T10:22:40.663Z,5.95
2023-02-11T10:27:42.563Z,6.35
2023-02-11T10:32:59.394Z,5.63
2023-02-11T10:38:01.302Z,6.28
2023-02-11T10:43:04.979Z,5.10
2023-02-11T10:48:27.353Z,6.78
2023-02-11T10:53:29.248Z,6.10
2023-02-11T10:58:34.639Z,7.03
2023-02-11T11:03:45.815Z,6.63
2023-02-11T11:08:49.222Z,7.35
2023-02-11T11:13:54.072Z,7.07
2023-02-11T11:19:08.162Z,7.07
2023-02-11T11:24:18.932Z,7.40
2023-02-11T11:29:24.804Z,6.70
2023-02-11T11:34:38.855Z,7.03
2023-02-11T11:39:40.859Z,7.97
2023-02-11T11:44:42.794Z,7.77
2023-02-11T11:50:06.426Z,7.10
2023-02-11T12:00:22.657Z,7.88
2023-02-11T12:05:24.415Z,7.10
2023-02-11T12:10:38.271Z,6.00
2023-02-11T12:15:55.528Z,8.30
2023-02-11T12:21:00.335Z,8.10
2023-02-11T12:26:24.765Z,7.28
2023-02-11T12:31:45.741Z,7.78
2023-02-11T12:37:07.927Z,7.18
2023-02-11T12:42:40.561Z,8.07
2023-02-11T12:48:19.138Z,7.75
2023-02-11T12:54:01.117Z,7.32
2023-02-11T12:59:03.087Z,8.07
2023-02-11T13:04:08.867Z,8.77
2023-02-11T13:09:17.364Z,8.95
2023-02-11T13:14:34.908Z,8.88
2023-02-11T13:19:44.659Z,9.35
2023-02-11T13:25:11.138Z,8.15
2023-02-11T13:30:28.931Z,9.80
2023-02-11T13:35:37.855Z,9.43
2023-02-11T13:40:39.853Z,10.60
2023-02-11T13:45:44.185Z,9.57
2023-02-11T13:50:50.406Z,9.73
2023-02-11T13:55:54.774Z,9.50
2023-02-11T14:00:56.924Z,10.02
2023-02-11T14:06:19.200Z,9.90
2023-02-11T14:11:24.104Z,10.30
2023-02-11T14:16:37.525Z,10.32
2023-02-11T14:21:40.337Z,11.30
2023-02-11T14:27:04.310Z,8.02
2023-02-11T14:32:38.488Z,11.02
2023-02-11T14:37:50.817Z,11.50
2023-02-11T14:42:54.518Z,8.45
2023-02-11T14:48:14.181Z,10.73
2023-02-11T14:53:23.164Z,9.55
2023-02-11T14:58:27.042Z,10.50
2023-02-11T15:03:42.690Z,11.43
2023-02-11T15:08:49.427Z,10.45
2023-02-11T15:13:53.079Z,10.40
2023-02-11T15:18:58.559Z,11.57
2023-02-11T15:24:05.674Z,11.02
2023-02-11T15:29:16.704Z,11.52
2023-02-11T15:34:18.583Z,11.38
2023-02-11T15:39:41.296Z,8.33
2023-02-11T15:44:43.162Z,10.73
2023-02-11T15:49:45.724Z,11.40
2023-02-11T15:54:47.706Z,10.82
2023-02-11T15:59:51.271Z,10.60
2023-02-11T16:05:01.699Z,10.57
2023-02-11T16:10:14.320Z,10.90
2023-02-11T16:15:35.339Z,10.77
2023-02-11T16:20:37.234Z,10.98
2023-02-11T16:25:39.186Z,10.47
2023-02-11T16:30:41.296Z,10.30
2023-02-11T16:35:43.134Z,10.07
2023-02-11T16:40:45.160Z,9.13
2023-02-11T16:45:46.994Z,7.93
2023-02-11T16:50:52.874Z,9.90
2023-02-11T16:55:55.193Z,11.30
2023-02-11T17:00:57.101Z,11.13
2023-02-11T17:05:59.664Z,10.10
2023-02-11T17:11:02.513Z,10.20
2023-02-11T17:21:07.394Z,10.10
2023-02-11T17:26:09.352Z,10.05
2023-02-11T17:31:11.539Z,10.33
2023-02-11T17:36:13.456Z,9.18
2023-02-11T17:41:15.452Z,10.43
2023-02-11T17:46:17.501Z,7.70
2023-02-11T17:51:29.643Z,8.20
2023-02-11T17:56:35.481Z,7.97
2023-02-11T18:01:37.826Z,9.52
2023-02-11T18:06:39.816Z,9.88
2023-02-11T18:11:41.950Z,10.20
2023-02-11T18:16:44.012Z,9.27
2023-02-11T18:21:45.944Z,9.73
2023-02-11T18:26:48.019Z,7.50
2023-02-11T18:31:50.026Z,9.98
2023-02-11T18:36:52.128Z,7.80
2023-02-11T18:41:57.196Z,9.38
2023-02-11T18:46:59.781Z,9.82
2023-02-11T18:52:01.829Z,8.10
2023-02-11T18:57:03.963Z,8.63
2023-02-11T19:02:05.839Z,9.43
2023-02-11T19:07:07.813Z,9.30
2023-02-11T19:12:09.782Z,7.72
2023-02-11T19:17:11.880Z,9.10
2023-02-11T19:22:13.801Z,8.75
2023-02-11T19:27:15.739Z,6.40
2023-02-11T19:32:17.726Z,7.70
2023-02-11T19:37:19.723Z,6.80
2023-02-11T19:42:21.754Z,8.30
2023-02-11T19:47:23.580Z,6.57
2023-02-11T19:52:25.773Z,8.30
2023-02-11T19:57:27.670Z,9.20
2023-02-11T20:02:29.594Z,8.70
2023-02-11T20:07:31.619Z,6.77
2023-02-11T20:12:33.608Z,8.70
2023-02-11T20:17:35.611Z,7.72
2023-02-11T20:22:37.556Z,8.80
2023-02-11T20:27:39.572Z,9.47
2023-02-11T20:32:41.613Z,8.73
2023-02-11T20:37:44.241Z,6.70
2023-02-11T20:47:47.828Z,8.70
2023-02-11T20:52:49.728Z,8.97
2023-02-11T20:57:51.569Z,6.70
2023-02-11T21:02:53.566Z,8.17
2023-02-11T21:07:55.413Z,8.93
2023-02-11T21:12:57.413Z,10.20
2023-02-11T21:17:59.326Z,8.77
2023-02-11T21:23:01.304Z,9.47
2023-02-11T21:28:03.502Z,10.07
2023-02-11T21:33:05.772Z,10.07
2023-02-11T21:38:07.709Z,9.82
2023-02-11T21:43:09.586Z,7.60
2023-02-11T21:48:11.674Z,7.63
2023-02-11T21:53:13.781Z,9.65
2023-02-11T21:58:15.682Z,9.63
2023-02-11T22:03:17.607Z,9.40
2023-02-11T22:08:20.308Z,9.00
2023-02-11T22:18:23.938Z,10.27
2023-02-11T22:23:25.732Z,10.37
2023-02-11T22:28:27.811Z,9.80
2023-02-11T22:33:29.842Z,9.23
2023-02-11T22:38:32.191Z,6.78
2023-02-11T22:43:34.144Z,10.55
2023-02-11T22:48:36.114Z,9.00
2023-02-11T22:53:38.013Z,8.93
2023-02-11T22:58:39.983Z,11.43
2023-02-11T23:03:41.892Z,9.20
2023-02-11T23:08:44.034Z,9.70
2023-02-11T23:13:46.476Z,8.57
2023-02-11T23:18:48.920Z,8.68
2023-02-11T23:23:57.418Z,8.55
2023-02-11T23:28:59.562Z,8.48
2023-02-11T23:34:01.438Z,6.88
2023-02-11T23:39:03.821Z,5.10
2023-02-11T23:44:05.778Z,6.30
2023-02-11T23:49:07.636Z,4.73
2023-02-11T23:54:12.746Z,4.50
2023-02-11T23:59:14.648Z,3.90
